sensor_id;sensor_type;location;lat;lon;timestamp;temperature;humidity
23149;DHT22;11743;51.228;22.498;2022-10-31T00:00:42;9.50;99.90
23149;DHT22;11743;51.228;22.498;2022-10-31T00:01:30;9.20;99.90
23149;DHT22;11743;51.228;22.498;2022-10-31T00:01:52;9.20;99.90
23149;DHT22;11743;51.228;22.498;2022-10-31T00:02:13;9.40;99.90
23149;DHT22;11743;51.228;22.498;2022-10-31T00:03:20;9.40;99.90
23149;DHT22;11743;51.228;22.498;2022-10-31T00:04:05;9.50;99.90
23149;DHT22;11743;51.228;22.498;2022-10-31T00:05:56;9.70;99.90
23149;DHT22;11743;51.228;22.498;2022-10-31T00:06:17;9.60;99.90
23149;DHT22;11743;51.228;22.498;2022-10-31T00:06:39;9.70;99.90
23149;DHT22;11743;51.228;22.498;2022-10-31T00:07:23;9.90;99.90
23149;DHT22;11743;51.228;22.498;2022-10-31T00:07:45;9.60;99.90
23149;DHT22;11743;51.228;22.498;2022-10-31T00:08:07;9.20;99.90
23149;DHT22;11743;51.228;22.498;2022-10-31T00:08:56;9.20;99.90
23149;DHT22;11743;51.228;22.498;2022-10-31T00:09:18;8.90;99.90
23149;DHT22;11743;51.228;22.498;2022-10-31T00:09:40;9.30;99.90
23149;DHT22;11743;51.228;22.498;2022-10-31T00:10:02;9.30;99.90
23149;DHT22;11743;51.228;22.498;2022-10-31T00:11:09;9.60;99.90
23149;DHT22;11743;51.228;22.498;2022-10-31T00:13:22;9.20;99.90
23149;DHT22;11743;51.228;22.498;2022-10-31T00:13:44;9.10;99.90
23149;DHT22;11743;51.228;22.498;2022-10-31T00:14:06;9.10;99.90
23149;DHT22;11743;51.228;22.498;2022-10-31T00:15:12;9.40;99.90
23149;DHT22;11743;51.228;22.498;2022-10-31T00:15:35;8.90;99.90
23149;DHT22;11743;51.228;22.498;2022-10-31T00:16:21;9.60;99.90
23149;DHT22;11743;51.228;22.498;2022-10-31T00:19:00;9.30;99.90
23149;DHT22;11743;51.228;22.498;2022-10-31T00:19:22;9.10;99.90
23149;DHT22;11743;51.228;22.498;2022-10-31T00:20:28;8.90;99.90
23149;DHT22;11743;51.228;22.498;2022-10-31T00:21:42;9.50;99.90
23149;DHT22;11743;51.228;22.498;2022-10-31T00:22:26;9.00;99.90
23149;DHT22;11743;51.228;22.498;2022-10-31T00:23:55;8.90;99.90
23149;DHT22;11743;51.228;22.498;2022-10-31T00:24:17;9.10;99.90
23149;DHT22;11743;51.228;22.498;2022-10-31T00:25:46;9.40;99.90
23149;DHT22;11743;51.228;22.498;2022-10-31T00:26:52;9.00;99.90
23149;DHT22;11743;51.228;22.498;2022-10-31T00:27:14;8.80;99.90
23149;DHT22;11743;51.228;22.498;2022-10-31T00:28:21;9.20;99.90
23149;DHT22;11743;51.228;22.498;2022-10-31T00:29:05;9.00;99.90
23149;DHT22;11743;51.228;22.498;2022-10-31T00:30:11;9.20;99.90
23149;DHT22;11743;51.228;22.498;2022-10-31T00:30:33;9.00;99.90
23149;DHT22;11743;51.228;22.498;2022-10-31T00:31:20;8.70;99.90
23149;DHT22;11743;51.228;22.498;2022-10-31T00:31:42;9.10;99.90
23149;DHT22;11743;51.228;22.498;2022-10-31T00:32:04;9.00;99.90
23149;DHT22;11743;51.228;22.498;2022-10-31T00:32:29;9.00;99.90
23149;DHT22;11743;51.228;22.498;2022-10-31T00:32:51;9.40;99.90
23149;DHT22;11743;51.228;22.498;2022-10-31T00:33:37;9.20;99.90
23149;DHT22;11743;51.228;22.498;2022-10-31T00:34:21;9.30;99.90
23149;DHT22;11743;51.228;22.498;2022-10-31T00:34:43;9.20;99.90
23149;DHT22;11743;51.228;22.498;2022-10-31T00:35:05;9.20;99.90
23149;DHT22;11743;51.228;22.498;2022-10-31T00:35:27;9.80;99.90
23149;DHT22;11743;51.228;22.498;2022-10-31T00:35:51;9.30;99.90
23149;DHT22;11743;51.228;22.498;2022-10-31T00:36:16;9.50;99.90
23149;DHT22;11743;51.228;22.498;2022-10-31T00:36:38;9.20;99.90
23149;DHT22;11743;51.228;22.498;2022-10-31T00:37:44;9.50;99.90
23149;DHT22;11743;51.228;22.498;2022-10-31T00:38:28;9.20;99.90
23149;DHT22;11743;51.228;22.498;2022-10-31T00:38:50;9.20;99.90
23149;DHT22;11743;51.228;22.498;2022-10-31T00:39:11;9.00;99.90
23149;DHT22;11743;51.228;22.498;2022-10-31T00:39:55;9.20;99.90
23149;DHT22;11743;51.228;22.498;2022-10-31T00:40:17;9.40;99.90
23149;DHT22;11743;51.228;22.498;2022-10-31T00:40:39;8.90;99.90
23149;DHT22;11743;51.228;22.498;2022-10-31T00:41:45;9.20;99.90
23149;DHT22;11743;51.228;22.498;2022-10-31T00:42:07;9.10;99.90
23149;DHT22;11743;51.228;22.498;2022-10-31T00:42:51;9.30;99.90
23149;DHT22;11743;51.228;22.498;2022-10-31T00:43:12;9.00;99.90
23149;DHT22;11743;51.228;22.498;2022-10-31T00:43:34;9.30;99.90
23149;DHT22;11743;51.228;22.498;2022-10-31T00:43:56;9.10;99.90
23149;DHT22;11743;51.228;22.498;2022-10-31T00:44:40;9.00;99.90
23149;DHT22;11743;51.228;22.498;2022-10-31T00:45:02;9.00;99.90
23149;DHT22;11743;51.228;22.498;2022-10-31T00:45:46;9.30;99.90
23149;DHT22;11743;51.228;22.498;2022-10-31T00:46:08;8.80;99.90
23149;DHT22;11743;51.228;22.498;2022-10-31T00:47:59;8.80;99.90
23149;DHT22;11743;51.228;22.498;2022-10-31T00:49:27;8.60;99.90
23149;DHT22;11743;51.228;22.498;2022-10-31T00:49:49;8.90;99.90
23149;DHT22;11743;51.228;22.498;2022-10-31T00:50:11;8.90;99.90
23149;DHT22;11743;51.228;22.498;2022-10-31T00:50:33;8.80;99.90
23149;DHT22;11743;51.228;22.498;2022-10-31T00:51:39;8.80;99.90
23149;DHT22;11743;51.228;22.498;2022-10-31T00:52:00;8.80;99.90
23149;DHT22;11743;51.228;22.498;2022-10-31T00:52:22;9.10;99.90
23149;DHT22;11743;51.228;22.498;2022-10-31T00:53:06;8.80;99.90
23149;DHT22;11743;51.228;22.498;2022-10-31T00:53:28;9.00;99.90
23149;DHT22;11743;51.228;22.498;2022-10-31T00:53:50;8.90;99.90
23149;DHT22;11743;51.228;22.498;2022-10-31T00:54:11;8.60;99.90
23149;DHT22;11743;51.228;22.498;2022-10-31T00:54:33;8.70;99.90
23149;DHT22;11743;51.228;22.498;2022-10-31T00:54:55;8.30;99.90
23149;DHT22;11743;51.228;22.498;2022-10-31T00:55:17;8.80;99.90
23149;DHT22;11743;51.228;22.498;2022-10-31T00:55:39;8.60;99.90
23149;DHT22;11743;51.228;22.498;2022-10-31T00:56:01;8.40;99.90
23149;DHT22;11743;51.228;22.498;2022-10-31T00:56:23;8.70;99.90
23149;DHT22;11743;51.228;22.498;2022-10-31T00:57:29;8.90;99.90
23149;DHT22;11743;51.228;22.498;2022-10-31T00:58:40;8.80;99.90
23149;DHT22;11743;51.228;22.498;2022-10-31T00:59:23;8.70;99.90
23149;DHT22;11743;51.228;22.498;2022-10-31T00:59:45;8.70;99.90
23149;DHT22;11743;51.228;22.498;2022-10-31T01:00:08;8.80;99.90
23149;DHT22;11743;51.228;22.498;2022-10-31T01:00:52;8.70;99.90
23149;DHT22;11743;51.228;22.498;2022-10-31T01:02:01;8.60;99.90
23149;DHT22;11743;51.228;22.498;2022-10-31T01:02:23;8.60;99.90
23149;DHT22;11743;51.228;22.498;2022-10-31T01:02:45;8.80;99.90
23149;DHT22;11743;51.228;22.498;2022-10-31T01:03:08;8.70;99.90
23149;DHT22;11743;51.228;22.498;2022-10-31T01:03:53;8.60;99.90
23149;DHT22;11743;51.228;22.498;2022-10-31T01:04:15;8.70;99.90
23149;DHT22;11743;51.228;22.498;2022-10-31T01:04:36;9.10;99.90
23149;DHT22;11743;51.228;22.498;2022-10-31T01:04:58;8.80;99.90
23149;DHT22;11743;51.228;22.498;2022-10-31T01:06:26;8.70;99.90
23149;DHT22;11743;51.228;22.498;2022-10-31T01:06:48;9.20;99.90
23149;DHT22;11743;51.228;22.498;2022-10-31T01:07:10;8.70;99.90
23149;DHT22;11743;51.228;22.498;2022-10-31T01:08:22;8.60;99.90
23149;DHT22;11743;51.228;22.498;2022-10-31T01:09:06;8.90;99.90
23149;DHT22;11743;51.228;22.498;2022-10-31T01:10:12;8.90;99.90
23149;DHT22;11743;51.228;22.498;2022-10-31T01:10:34;8.70;99.90
23149;DHT22;11743;51.228;22.498;2022-10-31T01:11:30;8.60;99.90
23149;DHT22;11743;51.228;22.498;2022-10-31T01:12:41;8.50;99.90
23149;DHT22;11743;51.228;22.498;2022-10-31T01:13:25;8.50;99.90
23149;DHT22;11743;51.228;22.498;2022-10-31T01:13:49;8.40;99.90
23149;DHT22;11743;51.228;22.498;2022-10-31T01:14:33;8.40;99.90
23149;DHT22;11743;51.228;22.498;2022-10-31T01:14:55;8.60;99.90
23149;DHT22;11743;51.228;22.498;2022-10-31T01:15:20;8.70;99.90
23149;DHT22;11743;51.228;22.498;2022-10-31T01:15:42;8.40;99.90
23149;DHT22;11743;51.228;22.498;2022-10-31T01:16:04;8.40;99.90
23149;DHT22;11743;51.228;22.498;2022-10-31T01:16:27;8.40;99.90
23149;DHT22;11743;51.228;22.498;2022-10-31T01:16:50;8.40;99.90
23149;DHT22;11743;51.228;22.498;2022-10-31T01:17:57;8.40;99.90
23149;DHT22;11743;51.228;22.498;2022-10-31T01:18:19;8.00;99.90
23149;DHT22;11743;51.228;22.498;2022-10-31T01:19:03;8.60;99.90
23149;DHT22;11743;51.228;22.498;2022-10-31T01:19:47;8.60;99.90
23149;DHT22;11743;51.228;22.498;2022-10-31T01:20:32;8.60;99.90
23149;DHT22;11743;51.228;22.498;2022-10-31T01:21:26;8.40;99.90
23149;DHT22;11743;51.228;22.498;2022-10-31T01:21:48;8.50;99.90
23149;DHT22;11743;51.228;22.498;2022-10-31T01:22:10;8.40;99.90
23149;DHT22;11743;51.228;22.498;2022-10-31T01:22:32;8.30;99.90
23149;DHT22;11743;51.228;22.498;2022-10-31T01:23:16;8.30;99.90
23149;DHT22;11743;51.228;22.498;2022-10-31T01:23:38;8.40;99.90
23149;DHT22;11743;51.228;22.498;2022-10-31T01:25:09;8.20;99.90
23149;DHT22;11743;51.228;22.498;2022-10-31T01:26:20;8.30;99.90
23149;DHT22;11743;51.228;22.498;2022-10-31T01:26:42;8.10;99.90
23149;DHT22;11743;51.228;22.498;2022-10-31T01:28:58;8.10;99.90
23149;DHT22;11743;51.228;22.498;2022-10-31T01:29:20;8.20;99.90
23149;DHT22;11743;51.228;22.498;2022-10-31T01:29:42;8.20;99.90
23149;DHT22;11743;51.228;22.498;2022-10-31T01:30:27;8.20;99.90
23149;DHT22;11743;51.228;22.498;2022-10-31T01:31:11;8.10;99.90
23149;DHT22;11743;51.228;22.498;2022-10-31T01:31:36;8.40;99.90
23149;DHT22;11743;51.228;22.498;2022-10-31T01:31:58;8.00;99.90
23149;DHT22;11743;51.228;22.498;2022-10-31T01:32:42;8.20;99.90
23149;DHT22;11743;51.228;22.498;2022-10-31T01:33:26;8.20;99.90
23149;DHT22;11743;51.228;22.498;2022-10-31T01:34:58;8.60;99.90
23149;DHT22;11743;51.228;22.498;2022-10-31T01:35:42;8.20;99.90
23149;DHT22;11743;51.228;22.498;2022-10-31T01:36:32;8.30;99.90
23149;DHT22;11743;51.228;22.498;2022-10-31T01:37:16;8.00;99.90
23149;DHT22;11743;51.228;22.498;2022-10-31T01:38:00;8.30;99.90
23149;DHT22;11743;51.228;22.498;2022-10-31T01:38:22;8.30;99.90
23149;DHT22;11743;51.228;22.498;2022-10-31T01:39:10;7.90;99.90
23149;DHT22;11743;51.228;22.498;2022-10-31T01:39:32;8.10;99.90
23149;DHT22;11743;51.228;22.498;2022-10-31T01:39:55;8.10;99.90
23149;DHT22;11743;51.228;22.498;2022-10-31T01:40:16;8.10;99.90
23149;DHT22;11743;51.228;22.498;2022-10-31T01:40:38;8.10;99.90
23149;DHT22;11743;51.228;22.498;2022-10-31T01:41:26;8.10;99.90
23149;DHT22;11743;51.228;22.498;2022-10-31T01:41:50;8.10;99.90
23149;DHT22;11743;51.228;22.498;2022-10-31T01:42:18;8.00;99.90
23149;DHT22;11743;51.228;22.498;2022-10-31T01:45:32;7.90;99.90
23149;DHT22;11743;51.228;22.498;2022-10-31T01:45:54;8.00;99.90
23149;DHT22;11743;51.228;22.498;2022-10-31T01:47:17;8.00;99.90
23149;DHT22;11743;51.228;22.498;2022-10-31T01:47:44;7.90;99.90
23149;DHT22;11743;51.228;22.498;2022-10-31T01:48:13;7.90;99.90
23149;DHT22;11743;51.228;22.498;2022-10-31T01:49:52;7.90;99.90
23149;DHT22;11743;51.228;22.498;2022-10-31T01:50:28;8.00;99.90
23149;DHT22;11743;51.228;22.498;2022-10-31T01:51:47;8.00;99.90
23149;DHT22;11743;51.228;22.498;2022-10-31T01:52:49;8.10;99.90
23149;DHT22;11743;51.228;22.498;2022-10-31T01:53:36;8.10;99.90
23149;DHT22;11743;51.228;22.498;2022-10-31T01:54:02;8.00;99.90
23149;DHT22;11743;51.228;22.498;2022-10-31T01:54:56;8.40;99.90
23149;DHT22;11743;51.228;22.498;2022-10-31T01:55:31;8.20;99.90
23149;DHT22;11743;51.228;22.498;2022-10-31T01:55:54;7.90;99.90
23149;DHT22;11743;51.228;22.498;2022-10-31T01:56:41;8.00;99.90
23149;DHT22;11743;51.228;22.498;2022-10-31T01:57:05;7.90;99.90
23149;DHT22;11743;51.228;22.498;2022-10-31T01:57:31;8.00;99.90
23149;DHT22;11743;51.228;22.498;2022-10-31T01:57:56;8.00;99.90
23149;DHT22;11743;51.228;22.498;2022-10-31T01:58:45;7.90;99.90
23149;DHT22;11743;51.228;22.498;2022-10-31T01:59:10;7.90;99.90
23149;DHT22;11743;51.228;22.498;2022-10-31T02:00:04;7.90;99.90
23149;DHT22;11743;51.228;22.498;2022-10-31T02:00:27;7.90;99.90
23149;DHT22;11743;51.228;22.498;2022-10-31T02:00:53;8.00;99.90
23149;DHT22;11743;51.228;22.498;2022-10-31T02:01:40;8.00;99.90
23149;DHT22;11743;51.228;22.498;2022-10-31T02:03:12;7.80;99.90
23149;DHT22;11743;51.228;22.498;2022-10-31T02:03:34;7.80;99.90
23149;DHT22;11743;51.228;22.498;2022-10-31T02:03:56;7.90;99.90
23149;DHT22;11743;51.228;22.498;2022-10-31T02:04:19;8.00;99.90
23149;DHT22;11743;51.228;22.498;2022-10-31T02:04:41;7.80;99.90
23149;DHT22;11743;51.228;22.498;2022-10-31T02:05:10;7.80;99.90
23149;DHT22;11743;51.228;22.498;2022-10-31T02:05:33;7.80;99.90
23149;DHT22;11743;51.228;22.498;2022-10-31T02:08:13;7.80;99.90
23149;DHT22;11743;51.228;22.498;2022-10-31T02:09:22;7.70;99.90
23149;DHT22;11743;51.228;22.498;2022-10-31T02:09:46;7.70;99.90
23149;DHT22;11743;51.228;22.498;2022-10-31T02:10:32;7.70;99.90
23149;DHT22;11743;51.228;22.498;2022-10-31T02:10:56;7.70;99.90
23149;DHT22;11743;51.228;22.498;2022-10-31T02:11:42;7.70;99.90
23149;DHT22;11743;51.228;22.498;2022-10-31T02:13:19;7.50;99.90
23149;DHT22;11743;51.228;22.498;2022-10-31T02:14:28;7.70;99.90
23149;DHT22;11743;51.228;22.498;2022-10-31T02:15:59;7.90;99.90
23149;DHT22;11743;51.228;22.498;2022-10-31T02:17:05;7.60;99.90
23149;DHT22;11743;51.228;22.498;2022-10-31T02:17:51;7.60;99.90
23149;DHT22;11743;51.228;22.498;2022-10-31T02:18:13;7.70;99.90
23149;DHT22;11743;51.228;22.498;2022-10-31T02:18:57;7.50;99.90
23149;DHT22;11743;51.228;22.498;2022-10-31T02:20:09;7.60;99.90
23149;DHT22;11743;51.228;22.498;2022-10-31T02:27:40;7.70;99.90
23149;DHT22;11743;51.228;22.498;2022-10-31T02:30:09;7.90;99.90
23149;DHT22;11743;51.228;22.498;2022-10-31T02:31:43;7.90;99.90
23149;DHT22;11743;51.228;22.498;2022-10-31T02:34:56;7.80;99.90
23149;DHT22;11743;51.228;22.498;2022-10-31T02:36:27;7.80;99.90
23149;DHT22;11743;51.228;22.498;2022-10-31T02:37:04;7.80;99.90
23149;DHT22;11743;51.228;22.498;2022-10-31T02:39:25;7.80;99.90
23149;DHT22;11743;51.228;22.498;2022-10-31T02:42:15;7.70;99.90
23149;DHT22;11743;51.228;22.498;2022-10-31T02:43:11;7.80;99.90
23149;DHT22;11743;51.228;22.498;2022-10-31T02:44:38;7.70;99.90
23149;DHT22;11743;51.228;22.498;2022-10-31T02:45:19;7.60;99.90
23149;DHT22;11743;51.228;22.498;2022-10-31T02:47:03;7.70;99.90
23149;DHT22;11743;51.228;22.498;2022-10-31T02:47:29;7.60;99.90
23149;DHT22;11743;51.228;22.498;2022-10-31T02:47:55;7.50;99.90
23149;DHT22;11743;51.228;22.498;2022-10-31T02:48:26;7.60;99.90
23149;DHT22;11743;51.228;22.498;2022-10-31T02:48:52;7.50;99.90
23149;DHT22;11743;51.228;22.498;2022-10-31T02:50:02;7.50;99.90
23149;DHT22;11743;51.228;22.498;2022-10-31T02:50:30;7.50;99.90
23149;DHT22;11743;51.228;22.498;2022-10-31T02:50:57;7.40;99.90
23149;DHT22;11743;51.228;22.498;2022-10-31T02:51:20;7.50;99.90
23149;DHT22;11743;51.228;22.498;2022-10-31T02:51:43;7.20;99.90
23149;DHT22;11743;51.228;22.498;2022-10-31T02:52:21;7.70;99.90
23149;DHT22;11743;51.228;22.498;2022-10-31T02:52:42;7.50;99.90
23149;DHT22;11743;51.228;22.498;2022-10-31T02:53:04;7.40;99.90
23149;DHT22;11743;51.228;22.498;2022-10-31T02:53:26;7.40;99.90
23149;DHT22;11743;51.228;22.498;2022-10-31T02:54:21;7.60;99.90
23149;DHT22;11743;51.228;22.498;2022-10-31T02:54:43;7.60;99.90
23149;DHT22;11743;51.228;22.498;2022-10-31T02:55:59;7.60;99.90
23149;DHT22;11743;51.228;22.498;2022-10-31T02:56:22;7.60;99.90
23149;DHT22;11743;51.228;22.498;2022-10-31T02:59:02;7.70;99.90
23149;DHT22;11743;51.228;22.498;2022-10-31T02:59:52;7.60;99.90
23149;DHT22;11743;51.228;22.498;2022-10-31T03:00:15;7.70;99.90
23149;DHT22;11743;51.228;22.498;2022-10-31T03:00:49;8.00;99.90
23149;DHT22;11743;51.228;22.498;2022-10-31T03:04:26;7.70;99.90
23149;DHT22;11743;51.228;22.498;2022-10-31T03:06:17;7.40;99.90
23149;DHT22;11743;51.228;22.498;2022-10-31T03:09:51;7.30;99.90
23149;DHT22;11743;51.228;22.498;2022-10-31T03:11:05;7.30;99.90
23149;DHT22;11743;51.228;22.498;2022-10-31T03:11:32;7.50;99.90
23149;DHT22;11743;51.228;22.498;2022-10-31T03:12:32;7.30;99.90
23149;DHT22;11743;51.228;22.498;2022-10-31T03:14:09;7.30;99.90
23149;DHT22;11743;51.228;22.498;2022-10-31T03:15:31;7.30;99.90
23149;DHT22;11743;51.228;22.498;2022-10-31T03:16:01;7.30;99.90
23149;DHT22;11743;51.228;22.498;2022-10-31T03:16:44;7.30;99.90
23149;DHT22;11743;51.228;22.498;2022-10-31T03:17:13;7.30;99.90
23149;DHT22;11743;51.228;22.498;2022-10-31T03:18:15;7.20;99.90
23149;DHT22;11743;51.228;22.498;2022-10-31T03:18:43;6.90;99.90
23149;DHT22;11743;51.228;22.498;2022-10-31T03:19:28;7.00;99.90
23149;DHT22;11743;51.228;22.498;2022-10-31T03:19:55;7.40;99.90
23149;DHT22;11743;51.228;22.498;2022-10-31T03:20:24;7.20;99.90
23149;DHT22;11743;51.228;22.498;2022-10-31T03:20:53;7.20;99.90
23149;DHT22;11743;51.228;22.498;2022-10-31T03:21:21;7.20;99.90
23149;DHT22;11743;51.228;22.498;2022-10-31T03:22:41;7.20;99.90
23149;DHT22;11743;51.228;22.498;2022-10-31T03:23:08;7.30;99.90
23149;DHT22;11743;51.228;22.498;2022-10-31T03:24:39;7.20;99.90
23149;DHT22;11743;51.228;22.498;2022-10-31T03:25:48;6.90;99.90
23149;DHT22;11743;51.228;22.498;2022-10-31T03:27:01;7.20;99.90
23149;DHT22;11743;51.228;22.498;2022-10-31T03:28:12;6.90;99.90
23149;DHT22;11743;51.228;22.498;2022-10-31T03:29:27;7.20;99.90
23149;DHT22;11743;51.228;22.498;2022-10-31T03:29:52;7.10;99.90
23149;DHT22;11743;51.228;22.498;2022-10-31T03:30:16;7.10;99.90
23149;DHT22;11743;51.228;22.498;2022-10-31T03:30:41;7.20;99.90
23149;DHT22;11743;51.228;22.498;2022-10-31T03:31:04;7.00;99.90
23149;DHT22;11743;51.228;22.498;2022-10-31T03:31:33;7.20;99.90
23149;DHT22;11743;51.228;22.498;2022-10-31T03:32:47;7.10;99.90
23149;DHT22;11743;51.228;22.498;2022-10-31T03:33:13;7.20;99.90
23149;DHT22;11743;51.228;22.498;2022-10-31T03:34:01;7.10;99.90
23149;DHT22;11743;51.228;22.498;2022-10-31T03:34:24;7.00;99.90
23149;DHT22;11743;51.228;22.498;2022-10-31T03:34:47;7.20;99.90
23149;DHT22;11743;51.228;22.498;2022-10-31T03:35:34;7.10;99.90
23149;DHT22;11743;51.228;22.498;2022-10-31T03:36:22;7.10;99.90
23149;DHT22;11743;51.228;22.498;2022-10-31T03:36:45;7.00;99.90
23149;DHT22;11743;51.228;22.498;2022-10-31T03:37:33;7.20;99.90
23149;DHT22;11743;51.228;22.498;2022-10-31T03:38:20;6.80;99.90
23149;DHT22;11743;51.228;22.498;2022-10-31T03:39:08;7.10;99.90
23149;DHT22;11743;51.228;22.498;2022-10-31T03:39:33;7.00;99.90
23149;DHT22;11743;51.228;22.498;2022-10-31T03:39:57;7.10;99.90
23149;DHT22;11743;51.228;22.498;2022-10-31T03:40:21;7.00;99.90
23149;DHT22;11743;51.228;22.498;2022-10-31T03:40:47;6.90;99.90
23149;DHT22;11743;51.228;22.498;2022-10-31T03:41:16;7.00;99.90
23149;DHT22;11743;51.228;22.498;2022-10-31T03:42:09;7.10;99.90
23149;DHT22;11743;51.228;22.498;2022-10-31T03:42:33;7.00;99.90
23149;DHT22;11743;51.228;22.498;2022-10-31T03:43:02;6.80;99.90
23149;DHT22;11743;51.228;22.498;2022-10-31T03:43:30;6.80;99.90
23149;DHT22;11743;51.228;22.498;2022-10-31T03:44:22;6.80;99.90
23149;DHT22;11743;51.228;22.498;2022-10-31T03:44:53;6.90;99.90
23149;DHT22;11743;51.228;22.498;2022-10-31T03:45:25;7.10;99.90
23149;DHT22;11743;51.228;22.498;2022-10-31T03:45:48;7.10;99.90
23149;DHT22;11743;51.228;22.498;2022-10-31T03:46:10;7.00;99.90
23149;DHT22;11743;51.228;22.498;2022-10-31T03:46:32;7.10;99.90
23149;DHT22;11743;51.228;22.498;2022-10-31T03:47:16;7.10;99.90
23149;DHT22;11743;51.228;22.498;2022-10-31T03:47:39;7.00;99.90
23149;DHT22;11743;51.228;22.498;2022-10-31T03:48:24;7.10;99.90
23149;DHT22;11743;51.228;22.498;2022-10-31T03:49:08;7.30;99.90
23149;DHT22;11743;51.228;22.498;2022-10-31T03:49:54;6.80;99.90
23149;DHT22;11743;51.228;22.498;2022-10-31T03:50:49;7.10;99.90
23149;DHT22;11743;51.228;22.498;2022-10-31T03:51:37;7.00;99.90
23149;DHT22;11743;51.228;22.498;2022-10-31T03:53:09;6.80;99.90
23149;DHT22;11743;51.228;22.498;2022-10-31T03:54:41;6.90;99.90
23149;DHT22;11743;51.228;22.498;2022-10-31T03:55:24;7.10;99.90
23149;DHT22;11743;51.228;22.498;2022-10-31T03:56:43;6.90;99.90
23149;DHT22;11743;51.228;22.498;2022-10-31T03:57:27;6.80;99.90
23149;DHT22;11743;51.228;22.498;2022-10-31T03:58:15;6.90;99.90
23149;DHT22;11743;51.228;22.498;2022-10-31T03:58:48;6.90;99.90
23149;DHT22;11743;51.228;22.498;2022-10-31T03:59:25;6.90;99.90
23149;DHT22;11743;51.228;22.498;2022-10-31T03:59:53;7.00;99.90
23149;DHT22;11743;51.228;22.498;2022-10-31T04:00:16;7.00;99.90
23149;DHT22;11743;51.228;22.498;2022-10-31T04:01:04;7.00;99.90
23149;DHT22;11743;51.228;22.498;2022-10-31T04:01:55;6.90;99.90
23149;DHT22;11743;51.228;22.498;2022-10-31T04:02:59;6.70;99.90
23149;DHT22;11743;51.228;22.498;2022-10-31T04:03:27;7.00;99.90
23149;DHT22;11743;51.228;22.498;2022-10-31T04:04:36;6.90;99.90
23149;DHT22;11743;51.228;22.498;2022-10-31T04:05:45;7.10;99.90
23149;DHT22;11743;51.228;22.498;2022-10-31T04:06:34;7.00;99.90
23149;DHT22;11743;51.228;22.498;2022-10-31T04:07:27;7.10;99.90
23149;DHT22;11743;51.228;22.498;2022-10-31T04:10:16;6.80;99.90
23149;DHT22;11743;51.228;22.498;2022-10-31T04:10:38;6.90;99.90
23149;DHT22;11743;51.228;22.498;2022-10-31T04:12:15;6.90;99.90
23149;DHT22;11743;51.228;22.498;2022-10-31T04:12:38;6.70;99.90
23149;DHT22;11743;51.228;22.498;2022-10-31T04:13:31;6.70;99.90
23149;DHT22;11743;51.228;22.498;2022-10-31T04:13:56;6.70;99.90
23149;DHT22;11743;51.228;22.498;2022-10-31T04:14:42;6.70;99.90
23149;DHT22;11743;51.228;22.498;2022-10-31T04:15:06;6.70;99.90
23149;DHT22;11743;51.228;22.498;2022-10-31T04:15:30;7.00;99.90
23149;DHT22;11743;51.228;22.498;2022-10-31T04:16:16;7.10;99.90
23149;DHT22;11743;51.228;22.498;2022-10-31T04:16:43;6.90;99.90
23149;DHT22;11743;51.228;22.498;2022-10-31T04:17:32;7.00;99.90
23149;DHT22;11743;51.228;22.498;2022-10-31T04:18:19;7.00;99.90
23149;DHT22;11743;51.228;22.498;2022-10-31T04:19:04;6.90;99.90
23149;DHT22;11743;51.228;22.498;2022-10-31T04:20:33;6.90;99.90
23149;DHT22;11743;51.228;22.498;2022-10-31T04:21:06;7.00;99.90
23149;DHT22;11743;51.228;22.498;2022-10-31T04:22:16;6.80;99.90
23149;DHT22;11743;51.228;22.498;2022-10-31T04:23:25;6.90;99.90
23149;DHT22;11743;51.228;22.498;2022-10-31T04:23:47;6.90;99.90
23149;DHT22;11743;51.228;22.498;2022-10-31T04:24:31;6.80;99.90
23149;DHT22;11743;51.228;22.498;2022-10-31T04:26:00;7.00;99.90
23149;DHT22;11743;51.228;22.498;2022-10-31T04:27:06;6.80;99.90
23149;DHT22;11743;51.228;22.498;2022-10-31T04:27:28;7.00;99.90
23149;DHT22;11743;51.228;22.498;2022-10-31T04:27:50;7.00;99.90
23149;DHT22;11743;51.228;22.498;2022-10-31T04:28:34;6.90;99.90
23149;DHT22;11743;51.228;22.498;2022-10-31T04:28:56;7.00;99.90
23149;DHT22;11743;51.228;22.498;2022-10-31T04:29:17;6.90;99.90
23149;DHT22;11743;51.228;22.498;2022-10-31T04:30:06;7.00;99.90
23149;DHT22;11743;51.228;22.498;2022-10-31T04:30:51;7.00;99.90
23149;DHT22;11743;51.228;22.498;2022-10-31T04:31:13;6.90;99.90
23149;DHT22;11743;51.228;22.498;2022-10-31T04:31:35;7.00;99.90
23149;DHT22;11743;51.228;22.498;2022-10-31T04:32:19;6.90;99.90
23149;DHT22;11743;51.228;22.498;2022-10-31T04:32:41;6.80;99.90
23149;DHT22;11743;51.228;22.498;2022-10-31T04:33:03;6.70;99.90
23149;DHT22;11743;51.228;22.498;2022-10-31T04:33:24;6.80;99.90
23149;DHT22;11743;51.228;22.498;2022-10-31T04:33:46;6.80;99.90
23149;DHT22;11743;51.228;22.498;2022-10-31T04:34:30;6.90;99.90
23149;DHT22;11743;51.228;22.498;2022-10-31T04:34:52;6.80;99.90
23149;DHT22;11743;51.228;22.498;2022-10-31T04:35:36;6.60;99.90
23149;DHT22;11743;51.228;22.498;2022-10-31T04:35:58;6.70;99.90
23149;DHT22;11743;51.228;22.498;2022-10-31T04:36:41;6.60;99.90
23149;DHT22;11743;51.228;22.498;2022-10-31T04:37:03;6.80;99.90
23149;DHT22;11743;51.228;22.498;2022-10-31T04:38:09;6.50;99.90
23149;DHT22;11743;51.228;22.498;2022-10-31T04:39:15;6.50;99.90
23149;DHT22;11743;51.228;22.498;2022-10-31T04:39:59;6.60;99.90
23149;DHT22;11743;51.228;22.498;2022-10-31T04:40:21;6.60;99.90
23149;DHT22;11743;51.228;22.498;2022-10-31T04:40:45;6.60;99.90
23149;DHT22;11743;51.228;22.498;2022-10-31T04:41:29;6.50;99.90
23149;DHT22;11743;51.228;22.498;2022-10-31T04:42:35;6.40;99.90
23149;DHT22;11743;51.228;22.498;2022-10-31T04:43:20;6.70;99.90
23149;DHT22;11743;51.228;22.498;2022-10-31T04:43:41;6.50;99.90
23149;DHT22;11743;51.228;22.498;2022-10-31T04:44:47;6.40;99.90
23149;DHT22;11743;51.228;22.498;2022-10-31T04:45:09;6.50;99.90
23149;DHT22;11743;51.228;22.498;2022-10-31T04:45:56;6.60;99.90
23149;DHT22;11743;51.228;22.498;2022-10-31T04:46:18;6.30;99.90
23149;DHT22;11743;51.228;22.498;2022-10-31T04:47:02;6.40;99.90
23149;DHT22;11743;51.228;22.498;2022-10-31T04:47:24;6.50;99.90
23149;DHT22;11743;51.228;22.498;2022-10-31T04:47:46;6.70;99.90
23149;DHT22;11743;51.228;22.498;2022-10-31T04:48:07;6.60;99.90
23149;DHT22;11743;51.228;22.498;2022-10-31T04:48:51;6.60;99.90
23149;DHT22;11743;51.228;22.498;2022-10-31T04:49:13;6.60;99.90
23149;DHT22;11743;51.228;22.498;2022-10-31T04:49:57;6.60;99.90
23149;DHT22;11743;51.228;22.498;2022-10-31T04:50:19;6.60;99.90
23149;DHT22;11743;51.228;22.498;2022-10-31T04:50:41;6.50;99.90
23149;DHT22;11743;51.228;22.498;2022-10-31T04:51:25;6.50;99.90
23149;DHT22;11743;51.228;22.498;2022-10-31T04:52:31;6.50;99.90